McCurtain, Oklahoma
Current Conditions -  °F | °C
As of 2:15 PM on Sunday 21 Dec 2014 (Local Time) from KGZL Reporting Station
Overcast Overcast  
Wind Chill: 50°   Ceiling: 6500
Heat Index: 50°   Visibility: 10mi
Dew Point: 36°   Wind: 10mph
Humidity: 58%   Direction: 180°S
Pressure: 29.92"   Gusts: 18mph
Location:  35.15°N, 94.97°W
Report Text: KGZL 212015Z AUTO 18009G16KT 10SM FEW031 OVC065 10/02 A2992 RMK AO2
Loading
Personal Weather Stations






























Interactive Weather Map New forecast layout! Learn more

10-Day Weather Forecast

Advertisements
Track Severe Weather on mobile